sensor_id;sensor_type;location;lat;lon;timestamp;pressure;altitude;pressure_sealevel;temperature;humidity
84310;BME280;74488;49.036;11.472;2024-01-15T00:00:48;96051.53;;;-3.43;81.33
84310;BME280;74488;49.036;11.472;2024-01-15T00:01:50;96005.53;;;-3.74;81.30
84310;BME280;74488;49.036;11.472;2024-01-15T00:02:51;96048.31;;;-3.52;81.47
84310;BME280;74488;49.036;11.472;2024-01-15T00:03:53;96053.44;;;-3.48;81.61
84310;BME280;74488;49.036;11.472;2024-01-15T00:04:55;96054.31;;;-3.50;81.91
84310;BME280;74488;49.036;11.472;2024-01-15T00:05:56;96059.44;;;-3.46;81.72
84310;BME280;74488;49.036;11.472;2024-01-15T00:06:58;96055.84;;;-3.42;81.63
84310;BME280;74488;49.036;11.472;2024-01-15T00:07:59;96062.75;;;-3.41;81.85
84310;BME280;74488;49.036;11.472;2024-01-15T00:09:01;96059.00;;;-3.31;81.41
84310;BME280;74488;49.036;11.472;2024-01-15T00:10:03;96002.75;;;-3.68;81.24
84310;BME280;74488;49.036;11.472;2024-01-15T00:11:05;96060.56;;;-3.26;81.38
84310;BME280;74488;49.036;11.472;2024-01-15T00:12:07;96055.28;;;-3.24;81.02
84310;BME280;74488;49.036;11.472;2024-01-15T00:13:08;96064.69;;;-3.19;81.13
84310;BME280;74488;49.036;11.472;2024-01-15T00:14:10;96066.53;;;-3.22;80.84
84310;BME280;74488;49.036;11.472;2024-01-15T00:15:11;96062.19;;;-3.22;80.99
84310;BME280;74488;49.036;11.472;2024-01-15T00:16:13;96069.88;;;-3.19;81.10
84310;BME280;74488;49.036;11.472;2024-01-15T00:17:14;96047.34;;;-3.20;81.28
84310;BME280;74488;49.036;11.472;2024-01-15T00:18:16;96009.91;;;-3.46;80.88
84310;BME280;74488;49.036;11.472;2024-01-15T00:19:18;96064.47;;;-3.11;80.92
84310;BME280;74488;49.036;11.472;2024-01-15T00:20:19;96064.41;;;-3.10;81.13
84310;BME280;74488;49.036;11.472;2024-01-15T00:21:21;96043.88;;;-3.20;81.03
84310;BME280;74488;49.036;11.472;2024-01-15T00:22:25;96067.34;;;-3.20;80.86
84310;BME280;74488;49.036;11.472;2024-01-15T00:23:27;96068.13;;;-3.17;80.94
84310;BME280;74488;49.036;11.472;2024-01-15T00:24:28;96081.34;;;-3.23;80.93
84310;BME280;74488;49.036;11.472;2024-01-15T00:25:29;96077.97;;;-3.26;80.80
84310;BME280;74488;49.036;11.472;2024-01-15T00:26:31;96072.03;;;-3.31;81.58
84310;BME280;74488;49.036;11.472;2024-01-15T00:27:33;96072.03;;;-3.31;81.46
84310;BME280;74488;49.036;11.472;2024-01-15T00:28:36;96066.84;;;-3.33;81.64
84310;BME280;74488;49.036;11.472;2024-01-15T00:29:37;96066.72;;;-3.28;81.53
84310;BME280;74488;49.036;11.472;2024-01-15T00:30:39;96077.06;;;-3.25;81.63
84310;BME280;74488;49.036;11.472;2024-01-15T00:31:41;96085.44;;;-3.16;81.14
84310;BME280;74488;49.036;11.472;2024-01-15T00:32:42;96075.84;;;-3.14;80.94
84310;BME280;74488;49.036;11.472;2024-01-15T00:33:44;96068.91;;;-3.15;80.87
84310;BME280;74488;49.036;11.472;2024-01-15T00:34:46;96082.72;;;-3.11;80.77
84310;BME280;74488;49.036;11.472;2024-01-15T00:35:48;96075.69;;;-3.09;80.96
84310;BME280;74488;49.036;11.472;2024-01-15T00:36:49;96078.47;;;-3.15;80.97
84310;BME280;74488;49.036;11.472;2024-01-15T00:37:51;96076.97;;;-3.22;80.96
84310;BME280;74488;49.036;11.472;2024-01-15T00:38:53;96069.81;;;-3.16;81.06
84310;BME280;74488;49.036;11.472;2024-01-15T00:39:54;96068.06;;;-3.15;81.24
84310;BME280;74488;49.036;11.472;2024-01-15T00:40:56;96071.47;;;-3.13;81.19
84310;BME280;74488;49.036;11.472;2024-01-15T00:41:57;96063.69;;;-3.15;81.27
84310;BME280;74488;49.036;11.472;2024-01-15T00:42:59;96058.41;;;-3.13;80.84
84310;BME280;74488;49.036;11.472;2024-01-15T00:44:00;96069.78;;;-3.14;80.79
84310;BME280;74488;49.036;11.472;2024-01-15T00:45:02;96068.91;;;-3.15;81.37
84310;BME280;74488;49.036;11.472;2024-01-15T00:46:04;96068.97;;;-3.16;81.10
84310;BME280;74488;49.036;11.472;2024-01-15T00:47:06;96058.56;;;-3.18;81.28
84310;BME280;74488;49.036;11.472;2024-01-15T00:48:08;96047.19;;;-3.15;80.97
84310;BME280;74488;49.036;11.472;2024-01-15T00:49:10;96057.59;;;-3.14;80.98
84310;BME280;74488;49.036;11.472;2024-01-15T00:50:12;96059.25;;;-3.11;81.27
84310;BME280;74488;49.036;11.472;2024-01-15T00:51:13;96058.47;;;-3.15;81.30
84310;BME280;74488;49.036;11.472;2024-01-15T00:52:15;96064.56;;;-3.14;81.06
84310;BME280;74488;49.036;11.472;2024-01-15T00:53:16;96058.28;;;-3.09;80.99
84310;BME280;74488;49.036;11.472;2024-01-15T00:54:18;96054.66;;;-3.05;80.66
84310;BME280;74488;49.036;11.472;2024-01-15T00:55:19;96057.16;;;-3.00;80.87
84310;BME280;74488;49.036;11.472;2024-01-15T00:56:21;96053.75;;;-3.02;80.49
84310;BME280;74488;49.036;11.472;2024-01-15T00:57:22;96053.25;;;-3.15;81.33
84310;BME280;74488;49.036;11.472;2024-01-15T00:58:24;96054.16;;;-3.16;81.49
84310;BME280;74488;49.036;11.472;2024-01-15T00:59:25;96054.16;;;-3.16;81.63
84310;BME280;74488;49.036;11.472;2024-01-15T01:00:27;96034.16;;;-3.15;81.47
84310;BME280;74488;49.036;11.472;2024-01-15T01:01:28;96042.47;;;-3.04;81.42
84310;BME280;74488;49.036;11.472;2024-01-15T01:02:31;96043.25;;;-3.01;81.46
84310;BME280;74488;49.036;11.472;2024-01-15T01:03:32;96044.22;;;-3.05;81.52
84310;BME280;74488;49.036;11.472;2024-01-15T01:04:34;96047.75;;;-3.06;81.97
84310;BME280;74488;49.036;11.472;2024-01-15T01:05:35;96056.63;;;-3.11;82.07
84310;BME280;74488;49.036;11.472;2024-01-15T01:06:37;96053.97;;;-3.10;81.98
84310;BME280;74488;49.036;11.472;2024-01-15T01:07:39;96048.75;;;-3.10;82.18
84310;BME280;74488;49.036;11.472;2024-01-15T01:08:40;96052.13;;;-3.06;82.34
84310;BME280;74488;49.036;11.472;2024-01-15T01:09:42;96050.09;;;-2.97;81.93
84310;BME280;74488;49.036;11.472;2024-01-15T01:10:45;96056.34;;;-3.02;81.68
84310;BME280;74488;49.036;11.472;2024-01-15T01:11:46;96058.97;;;-3.02;82.23
84310;BME280;74488;49.036;11.472;2024-01-15T01:12:48;96058.84;;;-2.99;82.14
84310;BME280;74488;49.036;11.472;2024-01-15T01:13:49;96062.28;;;-2.97;82.07
84310;BME280;74488;49.036;11.472;2024-01-15T01:14:51;96058.97;;;-3.02;82.15
84310;BME280;74488;49.036;11.472;2024-01-15T01:15:52;96045.28;;;-3.10;82.77
84310;BME280;74488;49.036;11.472;2024-01-15T01:16:54;96044.38;;;-3.08;82.84
84310;BME280;74488;49.036;11.472;2024-01-15T01:17:55;96059.06;;;-3.05;82.98
84310;BME280;74488;49.036;11.472;2024-01-15T01:18:57;96044.03;;;-2.99;82.22
84310;BME280;74488;49.036;11.472;2024-01-15T01:19:59;96050.13;;;-2.98;82.41
84310;BME280;74488;49.036;11.472;2024-01-15T01:21:01;96041.69;;;-3.06;82.60
84310;BME280;74488;49.036;11.472;2024-01-15T01:22:03;96041.41;;;-2.97;82.43
84310;BME280;74488;49.036;11.472;2024-01-15T01:23:04;96038.81;;;-2.99;82.39
84310;BME280;74488;49.036;11.472;2024-01-15T01:24:06;96044.13;;;-3.02;82.37
84310;BME280;74488;49.036;11.472;2024-01-15T01:25:08;96048.31;;;-2.96;82.25
84310;BME280;74488;49.036;11.472;2024-01-15T01:26:10;96042.03;;;-2.91;82.40
84310;BME280;74488;49.036;11.472;2024-01-15T01:27:11;96044.78;;;-2.94;81.66
84310;BME280;74488;49.036;11.472;2024-01-15T01:28:13;96026.03;;;-3.06;81.58
84310;BME280;74488;49.036;11.472;2024-01-15T01:29:15;96052.59;;;-2.94;81.69
84310;BME280;74488;49.036;11.472;2024-01-15T01:30:16;96053.69;;;-3.01;82.01
84310;BME280;74488;49.036;11.472;2024-01-15T01:31:18;96061.66;;;-3.05;82.42
84310;BME280;74488;49.036;11.472;2024-01-15T01:32:19;96054.72;;;-3.06;82.18
84310;BME280;74488;49.036;11.472;2024-01-15T01:33:21;96064.06;;;-2.99;82.56
84310;BME280;74488;49.036;11.472;2024-01-15T01:34:23;96064.28;;;-3.05;82.22
84310;BME280;74488;49.036;11.472;2024-01-15T01:35:25;96067.09;;;-3.13;82.11
84310;BME280;74488;49.036;11.472;2024-01-15T01:36:26;96060.94;;;-3.10;82.61
84310;BME280;74488;49.036;11.472;2024-01-15T01:37:28;96053.94;;;-3.08;82.66
84310;BME280;74488;49.036;11.472;2024-01-15T01:38:29;96060.72;;;-3.03;82.52
84310;BME280;74488;49.036;11.472;2024-01-15T01:39:31;96056.38;;;-3.04;82.56
84310;BME280;74488;49.036;11.472;2024-01-15T01:40:33;96052.22;;;-3.09;82.67
84310;BME280;74488;49.036;11.472;2024-01-15T01:41:34;96066.72;;;-3.01;82.80
84310;BME280;74488;49.036;11.472;2024-01-15T01:42:36;96048.72;;;-3.08;82.55
84310;BME280;74488;49.036;11.472;2024-01-15T01:43:38;96050.38;;;-3.06;82.22
84310;BME280;74488;49.036;11.472;2024-01-15T01:44:39;96054.81;;;-3.09;82.54
84310;BME280;74488;49.036;11.472;2024-01-15T01:45:43;96057.44;;;-3.09;82.88
84310;BME280;74488;49.036;11.472;2024-01-15T01:46:45;96050.50;;;-3.10;82.44
84310;BME280;74488;49.036;11.472;2024-01-15T01:47:46;96050.50;;;-3.10;82.80
84310;BME280;74488;49.036;11.472;2024-01-15T01:48:48;96055.69;;;-3.09;82.55
84310;BME280;74488;49.036;11.472;2024-01-15T01:49:50;96056.56;;;-3.10;83.12
84310;BME280;74488;49.036;11.472;2024-01-15T01:50:57;96049.59;;;-3.09;82.99
84310;BME280;74488;49.036;11.472;2024-01-15T01:52:00;96048.81;;;-3.11;83.32
84310;BME280;74488;49.036;11.472;2024-01-15T01:53:02;96049.69;;;-3.12;83.52
84310;BME280;74488;49.036;11.472;2024-01-15T01:54:06;96040.28;;;-3.16;82.99
84310;BME280;74488;49.036;11.472;2024-01-15T01:55:10;96035.78;;;-3.11;82.92
84310;BME280;74488;49.036;11.472;2024-01-15T01:56:13;96038.28;;;-3.08;83.23
84310;BME280;74488;49.036;11.472;2024-01-15T01:57:16;96030.50;;;-3.10;83.28
84310;BME280;74488;49.036;11.472;2024-01-15T01:58:19;96042.69;;;-3.10;83.37
84310;BME280;74488;49.036;11.472;2024-01-15T01:59:22;96048.81;;;-3.11;83.55
84310;BME280;74488;49.036;11.472;2024-01-15T02:00:24;96044.47;;;-3.11;83.63
84310;BME280;74488;49.036;11.472;2024-01-15T02:01:26;96052.22;;;-3.09;83.29
84310;BME280;74488;49.036;11.472;2024-01-15T02:02:28;96056.53;;;-3.08;83.74
84310;BME280;74488;49.036;11.472;2024-01-15T02:03:30;96055.53;;;-3.04;83.55
84310;BME280;74488;49.036;11.472;2024-01-15T02:04:32;96065.78;;;-2.98;83.25
84310;BME280;74488;49.036;11.472;2024-01-15T02:05:35;96066.56;;;-2.96;82.83
84310;BME280;74488;49.036;11.472;2024-01-15T02:06:36;96032.47;;;-3.16;82.76
84310;BME280;74488;49.036;11.472;2024-01-15T02:07:38;96056.09;;;-2.95;83.02
84310;BME280;74488;49.036;11.472;2024-01-15T02:08:43;96059.50;;;-2.93;82.86
84310;BME280;74488;49.036;11.472;2024-01-15T02:09:44;96056.88;;;-2.91;82.72
84310;BME280;74488;49.036;11.472;2024-01-15T02:10:46;96062.09;;;-2.91;83.10
84310;BME280;74488;49.036;11.472;2024-01-15T02:11:49;96061.13;;;-2.88;83.49
84310;BME280;74488;49.036;11.472;2024-01-15T02:12:50;96063.31;;;-2.75;82.94
84310;BME280;74488;49.036;11.472;2024-01-15T02:13:52;96060.72;;;-2.76;82.63
84310;BME280;74488;49.036;11.472;2024-01-15T02:14:54;96061.69;;;-2.79;82.55
84310;BME280;74488;49.036;11.472;2024-01-15T02:15:55;96068.69;;;-2.79;82.81
84310;BME280;74488;49.036;11.472;2024-01-15T02:16:57;96061.69;;;-2.79;82.67
84310;BME280;74488;49.036;11.472;2024-01-15T02:18:00;96060.69;;;-2.75;82.48
84310;BME280;74488;49.036;11.472;2024-01-15T02:19:02;96066.69;;;-2.73;82.79
84310;BME280;74488;49.036;11.472;2024-01-15T02:20:04;96067.56;;;-2.72;82.31
84310;BME280;74488;49.036;11.472;2024-01-15T02:21:07;96042.88;;;-2.88;82.04
84310;BME280;74488;49.036;11.472;2024-01-15T02:22:08;96070.84;;;-2.66;81.97
84310;BME280;74488;49.036;11.472;2024-01-15T02:23:14;96071.69;;;-2.65;81.76
84310;BME280;74488;49.036;11.472;2024-01-15T02:24:15;96076.94;;;-2.67;81.85
84310;BME280;74488;49.036;11.472;2024-01-15T02:25:18;96072.72;;;-2.71;82.04
84310;BME280;74488;49.036;11.472;2024-01-15T02:26:20;96075.13;;;-2.65;81.56
84310;BME280;74488;49.036;11.472;2024-01-15T02:27:23;96066.25;;;-2.59;81.44
84310;BME280;74488;49.036;11.472;2024-01-15T02:28:25;96076.78;;;-2.62;81.61
84310;BME280;74488;49.036;11.472;2024-01-15T02:29:26;96072.53;;;-2.65;81.46
84310;BME280;74488;49.036;11.472;2024-01-15T02:30:28;96072.41;;;-2.60;81.93
84310;BME280;74488;49.036;11.472;2024-01-15T02:31:31;96061.28;;;-2.67;81.68
84310;BME280;74488;49.036;11.472;2024-01-15T02:32:32;96072.53;;;-2.65;82.13
84310;BME280;74488;49.036;11.472;2024-01-15T02:33:34;96061.28;;;-2.67;81.86
84310;BME280;74488;49.036;11.472;2024-01-15T02:34:36;96056.31;;;-2.74;82.69
84310;BME280;74488;49.036;11.472;2024-01-15T02:35:37;96061.47;;;-2.73;82.41
84310;BME280;74488;49.036;11.472;2024-01-15T02:36:39;96059.91;;;-2.77;83.05
84310;BME280;74488;49.036;11.472;2024-01-15T02:37:40;96038.69;;;-2.94;83.06
84310;BME280;74488;49.036;11.472;2024-01-15T02:38:42;96059.03;;;-2.77;82.89
84310;BME280;74488;49.036;11.472;2024-01-15T02:39:44;96054.63;;;-2.75;82.74
84310;BME280;74488;49.036;11.472;2024-01-15T02:40:45;96052.78;;;-2.73;82.75
84310;BME280;74488;49.036;11.472;2024-01-15T02:41:47;96049.47;;;-2.77;82.56
84310;BME280;74488;49.036;11.472;2024-01-15T02:42:48;96054.56;;;-2.74;82.62
84310;BME280;74488;49.036;11.472;2024-01-15T02:43:50;96049.47;;;-2.77;83.17
84310;BME280;74488;49.036;11.472;2024-01-15T02:44:51;96052.09;;;-2.78;83.08
84310;BME280;74488;49.036;11.472;2024-01-15T02:45:53;96052.06;;;-2.77;82.83
84310;BME280;74488;49.036;11.472;2024-01-15T02:46:54;96055.56;;;-2.78;83.02
84310;BME280;74488;49.036;11.472;2024-01-15T02:47:56;96055.63;;;-2.79;82.90
84310;BME280;74488;49.036;11.472;2024-01-15T02:48:57;96057.31;;;-2.78;82.92
84310;BME280;74488;49.036;11.472;2024-01-15T02:49:59;96052.09;;;-2.78;83.31
84310;BME280;74488;49.036;11.472;2024-01-15T02:51:01;96047.84;;;-2.81;83.33
84310;BME280;74488;49.036;11.472;2024-01-15T02:52:03;96052.97;;;-2.78;83.36
84310;BME280;74488;49.036;11.472;2024-01-15T02:53:05;96058.94;;;-2.74;83.32
84310;BME280;74488;49.036;11.472;2024-01-15T02:54:06;96060.63;;;-2.73;83.42
84310;BME280;74488;49.036;11.472;2024-01-15T02:55:08;96061.47;;;-2.73;83.28
84310;BME280;74488;49.036;11.472;2024-01-15T02:56:10;96055.41;;;-2.73;83.25
84310;BME280;74488;49.036;11.472;2024-01-15T02:57:11;96051.91;;;-2.72;82.84
84310;BME280;74488;49.036;11.472;2024-01-15T02:58:14;96056.22;;;-2.71;83.00
84310;BME280;74488;49.036;11.472;2024-01-15T02:59:16;96055.41;;;-2.73;83.14
84310;BME280;74488;49.036;11.472;2024-01-15T03:00:17;96053.66;;;-2.73;83.20
84310;BME280;74488;49.036;11.472;2024-01-15T03:01:19;96050.28;;;-2.76;82.97
84310;BME280;74488;49.036;11.472;2024-01-15T03:02:21;96061.38;;;-2.70;83.43
84310;BME280;74488;49.036;11.472;2024-01-15T03:03:23;96050.94;;;-2.70;83.00
84310;BME280;74488;49.036;11.472;2024-01-15T03:04:25;96057.97;;;-2.72;83.42
84310;BME280;74488;49.036;11.472;2024-01-15T03:05:26;96055.38;;;-2.72;83.97
84310;BME280;74488;49.036;11.472;2024-01-15T03:06:28;96048.53;;;-2.76;83.76
84310;BME280;74488;49.036;11.472;2024-01-15T03:07:29;96040.50;;;-2.70;83.27
84310;BME280;74488;49.036;11.472;2024-01-15T03:08:31;96045.91;;;-2.76;83.40
84310;BME280;74488;49.036;11.472;2024-01-15T03:09:33;96045.78;;;-2.71;83.87
84310;BME280;74488;49.036;11.472;2024-01-15T03:10:34;96051.81;;;-2.69;83.56
84310;BME280;74488;49.036;11.472;2024-01-15T03:11:39;96060.59;;;-2.72;83.83
84310;BME280;74488;49.036;11.472;2024-01-15T03:12:40;96063.09;;;-2.69;83.25
84310;BME280;74488;49.036;11.472;2024-01-15T03:13:42;96056.16;;;-2.70;83.65
84310;BME280;74488;49.036;11.472;2024-01-15T03:14:43;96052.59;;;-2.67;83.95
84310;BME280;74488;49.036;11.472;2024-01-15T03:15:45;96059.47;;;-2.65;83.63
84310;BME280;74488;49.036;11.472;2024-01-15T03:16:47;96048.34;;;-2.70;83.74
84310;BME280;74488;49.036;11.472;2024-01-15T03:17:48;96062.94;;;-2.64;83.18
84310;BME280;74488;49.036;11.472;2024-01-15T03:18:50;96055.13;;;-2.64;83.09
84310;BME280;74488;49.036;11.472;2024-01-15T03:19:51;96054.31;;;-2.66;83.55
84310;BME280;74488;49.036;11.472;2024-01-15T03:20:53;96057.72;;;-2.64;83.43
84310;BME280;74488;49.036;11.472;2024-01-15T03:21:54;96055.13;;;-2.64;83.56
84310;BME280;74488;49.036;11.472;2024-01-15T03:22:56;96055.97;;;-2.64;83.70
84310;BME280;74488;49.036;11.472;2024-01-15T03:23:58;96056.75;;;-2.62;83.22
84310;BME280;74488;49.036;11.472;2024-01-15T03:24:59;96055.88;;;-2.61;83.70
84310;BME280;74488;49.036;11.472;2024-01-15T03:26:01;96051.50;;;-2.60;83.45
84310;BME280;74488;49.036;11.472;2024-01-15T03:27:02;96051.44;;;-2.59;83.40
84310;BME280;74488;49.036;11.472;2024-01-15T03:28:04;96045.03;;;-2.49;83.14
84310;BME280;74488;49.036;11.472;2024-01-15T03:29:07;96049.28;;;-2.46;82.92
84310;BME280;74488;49.036;11.472;2024-01-15T03:30:09;96045.88;;;-2.48;83.28
84310;BME280;74488;49.036;11.472;2024-01-15T03:31:11;96051.06;;;-2.47;83.29
84310;BME280;74488;49.036;11.472;2024-01-15T03:32:13;96053.88;;;-2.53;82.88
84310;BME280;74488;49.036;11.472;2024-01-15T03:33:14;96050.50;;;-2.56;83.36
84310;BME280;74488;49.036;11.472;2024-01-15T03:34:16;96046.19;;;-2.57;83.58
84310;BME280;74488;49.036;11.472;2024-01-15T03:35:17;96044.41;;;-2.57;83.21
84310;BME280;74488;49.036;11.472;2024-01-15T03:36:19;96013.63;;;-2.72;83.38
84310;BME280;74488;49.036;11.472;2024-01-15T03:37:21;96049.50;;;-2.52;83.44
84310;BME280;74488;49.036;11.472;2024-01-15T03:38:23;96026.38;;;-2.63;83.51
84310;BME280;74488;49.036;11.472;2024-01-15T03:39:25;96041.69;;;-2.54;83.01
84310;BME280;74488;49.036;11.472;2024-01-15T03:40:26;96044.38;;;-2.55;82.98
84310;BME280;74488;49.036;11.472;2024-01-15T03:41:28;96039.09;;;-2.54;83.71
84310;BME280;74488;49.036;11.472;2024-01-15T03:42:30;96035.41;;;-2.48;83.67
84310;BME280;74488;49.036;11.472;2024-01-15T03:43:31;96024.34;;;-2.55;83.23
84310;BME280;74488;49.036;11.472;2024-01-15T03:44:33;96034.59;;;-2.49;83.56
84310;BME280;74488;49.036;11.472;2024-01-15T03:45:34;96033.63;;;-2.46;83.44
84310;BME280;74488;49.036;11.472;2024-01-15T03:46:36;96031.72;;;-2.41;83.48
84310;BME280;74488;49.036;11.472;2024-01-15T03:47:37;96035.13;;;-2.39;83.59
84310;BME280;74488;49.036;11.472;2024-01-15T03:48:39;96031.66;;;-2.40;83.66
84310;BME280;74488;49.036;11.472;2024-01-15T03:49:41;96030.66;;;-2.36;83.94
84310;BME280;74488;49.036;11.472;2024-01-15T03:50:43;96019.44;;;-2.39;83.89
84310;BME280;74488;49.036;11.472;2024-01-15T03:51:44;96013.38;;;-2.40;83.92
84310;BME280;74488;49.036;11.472;2024-01-15T03:52:46;96020.97;;;-2.32;84.06
84310;BME280;74488;49.036;11.472;2024-01-15T03:53:48;96020.09;;;-2.33;83.71
84310;BME280;74488;49.036;11.472;2024-01-15T03:54:49;96017.31;;;-2.28;83.81
84310;BME280;74488;49.036;11.472;2024-01-15T03:55:51;95984.50;;;-2.35;83.00
84310;BME280;74488;49.036;11.472;2024-01-15T03:56:53;96018.63;;;-2.15;82.91
84310;BME280;74488;49.036;11.472;2024-01-15T03:57:55;96021.25;;;-2.16;82.75
84310;BME280;74488;49.036;11.472;2024-01-15T03:58:56;96015.19;;;-2.17;83.38
84310;BME280;74488;49.036;11.472;2024-01-15T03:59:58;96024.66;;;-2.14;82.58
84310;BME280;74488;49.036;11.472;2024-01-15T04:00:59;96019.34;;;-2.11;82.48
84310;BME280;74488;49.036;11.472;2024-01-15T04:02:01;96022.81;;;-2.11;82.69
84310;BME280;74488;49.036;11.472;2024-01-15T04:03:02;96027.28;;;-2.14;82.48
84310;BME280;74488;49.036;11.472;2024-01-15T04:04:04;96004.31;;;-2.29;82.97
84310;BME280;74488;49.036;11.472;2024-01-15T04:05:06;96019.44;;;-2.14;83.35
84310;BME280;74488;49.036;11.472;2024-01-15T04:06:07;96011.19;;;-2.02;82.67
84310;BME280;74488;49.036;11.472;2024-01-15T04:07:09;96012.59;;;-1.94;82.31
84310;BME280;74488;49.036;11.472;2024-01-15T04:08:11;96007.44;;;-1.95;82.45
84310;BME280;74488;49.036;11.472;2024-01-15T04:09:13;96007.59;;;-2.00;82.82
84310;BME280;74488;49.036;11.472;2024-01-15T04:10:15;96011.97;;;-2.00;82.52
84310;BME280;74488;49.036;11.472;2024-01-15T04:11:16;96008.63;;;-2.04;83.11
84310;BME280;74488;49.036;11.472;2024-01-15T04:12:18;96015.41;;;-1.98;82.85
84310;BME280;74488;49.036;11.472;2024-01-15T04:13:19;96021.25;;;-1.92;82.61
84310;BME280;74488;49.036;11.472;2024-01-15T04:14:21;96018.63;;;-1.92;82.39
84310;BME280;74488;49.036;11.472;2024-01-15T04:15:22;96018.59;;;-1.90;82.22
84310;BME280;74488;49.036;11.472;2024-01-15T04:16:24;96017.84;;;-1.94;82.83
84310;BME280;74488;49.036;11.472;2024-01-15T04:17:26;96004.28;;;-2.03;82.35
84310;BME280;74488;49.036;11.472;2024-01-15T04:18:28;96022.41;;;-2.00;82.75
84310;BME280;74488;49.036;11.472;2024-01-15T04:19:30;96018.13;;;-2.01;82.88
84310;BME280;74488;49.036;11.472;2024-01-15T04:20:31;96029.34;;;-1.99;82.92
84310;BME280;74488;49.036;11.472;2024-01-15T04:21:33;96020.56;;;-1.97;82.58
84310;BME280;74488;49.036;11.472;2024-01-15T04:22:35;96010.22;;;-2.00;82.60
84310;BME280;74488;49.036;11.472;2024-01-15T04:23:36;96018.03;;;-2.00;82.85
84310;BME280;74488;49.036;11.472;2024-01-15T04:24:38;96016.25;;;-1.98;82.99
84310;BME280;74488;49.036;11.472;2024-01-15T04:25:40;96012.69;;;-1.95;82.80
84310;BME280;74488;49.036;11.472;2024-01-15T04:26:44;96017.91;;;-1.95;82.62
84310;BME280;74488;49.036;11.472;2024-01-15T04:27:46;96017.91;;;-1.95;82.52
84310;BME280;74488;49.036;11.472;2024-01-15T04:28:47;95997.56;;;-1.87;82.36
84310;BME280;74488;49.036;11.472;2024-01-15T04:29:49;96002.13;;;-1.92;82.67
84310;BME280;74488;49.036;11.472;2024-01-15T04:30:51;96014.03;;;-1.85;82.56
84310;BME280;74488;49.036;11.472;2024-01-15T04:31:53;96007.28;;;-1.91;82.98
84310;BME280;74488;49.036;11.472;2024-01-15T04:32:54;96013.34;;;-1.90;83.38
84310;BME280;74488;49.036;11.472;2024-01-15T04:33:56;96011.75;;;-1.94;84.63
84310;BME280;74488;49.036;11.472;2024-01-15T04:34:58;96015.41;;;-1.98;84.96
84310;BME280;74488;49.036;11.472;2024-01-15T04:36:03;96024.09;;;-1.98;85.24
84310;BME280;74488;49.036;11.472;2024-01-15T04:37:05;96008.56;;;-2.02;85.38
84310;BME280;74488;49.036;11.472;2024-01-15T04:38:06;96010.06;;;-1.95;84.06
84310;BME280;74488;49.036;11.472;2024-01-15T04:39:08;96004.84;;;-1.95;83.97
84310;BME280;74488;49.036;11.472;2024-01-15T04:40:10;95978.50;;;-2.14;83.76
84310;BME280;74488;49.036;11.472;2024-01-15T04:41:13;96003.91;;;-1.94;83.91
84310;BME280;74488;49.036;11.472;2024-01-15T04:42:15;96003.91;;;-1.94;84.02
84310;BME280;74488;49.036;11.472;2024-01-15T04:43:16;96001.16;;;-1.90;83.02
84310;BME280;74488;49.036;11.472;2024-01-15T04:44:18;95996.72;;;-1.88;82.89
84310;BME280;74488;49.036;11.472;2024-01-15T04:45:20;95994.03;;;-1.86;83.30
84310;BME280;74488;49.036;11.472;2024-01-15T04:46:24;95996.63;;;-1.86;83.66
84310;BME280;74488;49.036;11.472;2024-01-15T04:47:25;95995.81;;;-1.87;83.36
84310;BME280;74488;49.036;11.472;2024-01-15T04:48:27;95987.13;;;-1.87;83.89
84310;BME280;74488;49.036;11.472;2024-01-15T04:49:28;95988.69;;;-1.83;82.87
84310;BME280;74488;49.036;11.472;2024-01-15T04:50:31;95975.63;;;-1.83;82.57
84310;BME280;74488;49.036;11.472;2024-01-15T04:51:34;95971.44;;;-1.87;82.69
84310;BME280;74488;49.036;11.472;2024-01-15T04:52:35;95993.81;;;-1.80;83.20
84310;BME280;74488;49.036;11.472;2024-01-15T04:53:37;95985.06;;;-1.79;82.67
84310;BME280;74488;49.036;11.472;2024-01-15T04:54:38;95979.84;;;-1.79;82.68
84310;BME280;74488;49.036;11.472;2024-01-15T04:55:40;95968.41;;;-1.77;82.68
84310;BME280;74488;49.036;11.472;2024-01-15T04:56:41;95977.09;;;-1.76;82.54
84310;BME280;74488;49.036;11.472;2024-01-15T04:57:43;95976.25;;;-1.77;81.99
84310;BME280;74488;49.036;11.472;2024-01-15T04:58:45;95979.66;;;-1.75;82.56
84310;BME280;74488;49.036;11.472;2024-01-15T04:59:47;95926.59;;;-2.00;82.14
84310;BME280;74488;49.036;11.472;2024-01-15T05:00:49;95973.44;;;-1.72;82.45
84310;BME280;74488;49.036;11.472;2024-01-15T05:01:50;95976.94;;;-1.71;82.16
84310;BME280;74488;49.036;11.472;2024-01-15T05:02:52;95975.94;;;-1.69;81.96
84310;BME280;74488;49.036;11.472;2024-01-15T05:03:54;95973.34;;;-1.69;82.04
84310;BME280;74488;49.036;11.472;2024-01-15T05:04:59;95973.34;;;-1.69;82.40
84310;BME280;74488;49.036;11.472;2024-01-15T05:06:00;95960.38;;;-1.72;81.39
84310;BME280;74488;49.036;11.472;2024-01-15T05:07:02;95961.97;;;-1.68;82.58
84310;BME280;74488;49.036;11.472;2024-01-15T05:08:04;95975.06;;;-1.68;82.03
84310;BME280;74488;49.036;11.472;2024-01-15T05:09:06;95964.72;;;-1.71;81.70
84310;BME280;74488;49.036;11.472;2024-01-15T05:10:08;95976.78;;;-1.67;82.13
84310;BME280;74488;49.036;11.472;2024-01-15T05:11:10;95975.06;;;-1.68;82.11
84310;BME280;74488;49.036;11.472;2024-01-15T05:12:11;95961.13;;;-1.68;82.19
84310;BME280;74488;49.036;11.472;2024-01-15T05:13:13;95964.66;;;-1.69;81.80
84310;BME280;74488;49.036;11.472;2024-01-15T05:14:14;95968.81;;;-1.64;81.66
84310;BME280;74488;49.036;11.472;2024-01-15T05:15:16;95970.38;;;-1.60;82.32
84310;BME280;74488;49.036;11.472;2024-01-15T05:16:17;95965.16;;;-1.60;81.43
84310;BME280;74488;49.036;11.472;2024-01-15T05:17:19;95960.84;;;-1.61;81.73
84310;BME280;74488;49.036;11.472;2024-01-15T05:18:20;95956.63;;;-1.65;81.92
84310;BME280;74488;49.036;11.472;2024-01-15T05:19:22;95968.63;;;-1.59;81.59
84310;BME280;74488;49.036;11.472;2024-01-15T05:20:24;95965.13;;;-1.58;81.44
84310;BME280;74488;49.036;11.472;2024-01-15T05:21:25;95966.78;;;-1.57;81.69
84310;BME280;74488;49.036;11.472;2024-01-15T05:22:27;95962.44;;;-1.57;81.35
84310;BME280;74488;49.036;11.472;2024-01-15T05:23:28;95948.69;;;-1.62;81.43